createdAt,value
2023-07-05T00:04:48.896Z,86.56152
2023-07-05T00:09:48.935Z,86.35645
2023-07-05T00:14:48.965Z,85.91992
2023-07-05T00:19:53.633Z,85.33496
2023-07-05T00:24:48.961Z,85.62793
2023-07-05T00:29:48.941Z,86.48535
2023-07-05T00:34:48.982Z,88.625
2023-07-05T00:39:48.946Z,90.18555
2023-07-05T00:44:58.920Z,90.83594
2023-07-05T00:49:48.977Z,91.96289
2023-07-05T00:54:51.238Z,92.24121
2023-07-05T00:59:52.113Z,92.38086
2023-07-05T01:04:49.103Z,92.55371
2023-07-05T01:09:50.463Z,92.90332
2023-07-05T01:14:51.858Z,92.82129
2023-07-05T01:20:02.674Z,93.12988
2023-07-05T01:25:06.500Z,93.32129
2023-07-05T01:29:59.746Z,93.63574
2023-07-05T01:34:54.067Z,93.72266
2023-07-05T01:39:48.965Z,93.90137
2023-07-05T01:44:48.979Z,94.04395
2023-07-05T01:49:53.603Z,94.375
2023-07-05T01:54:51.724Z,94.67871
2023-07-05T01:59:51.621Z,94.93457
2023-07-05T02:04:49.378Z,95.0498
2023-07-05T02:09:49.262Z,95.26074
2023-07-05T02:14:49.029Z,95.23047
2023-07-05T02:19:49.085Z,95.21777
2023-07-05T02:24:50.864Z,94.97559
2023-07-05T02:29:49.059Z,94.67676
2023-07-05T02:34:49.048Z,94.30762
2023-07-05T02:39:49.108Z,94.5791
2023-07-05T02:44:51.806Z,94.59668
2023-07-05T02:49:49.109Z,94.50977
2023-07-05T02:54:49.108Z,94.36328
2023-07-05T02:59:49.086Z,94.17285
2023-07-05T03:04:50.855Z,93.40723
2023-07-05T03:09:49.736Z,93.21484
2023-07-05T03:14:49.858Z,93.23926
2023-07-05T03:19:49.101Z,92.96484
2023-07-05T03:24:49.104Z,92.60645
2023-07-05T03:29:49.139Z,91.86914
2023-07-05T03:34:49.133Z,90.87695
2023-07-05T03:39:49.098Z,89.47363
2023-07-05T03:44:49.094Z,88.77441
2023-07-05T03:49:49.068Z,87.35254
2023-07-05T03:54:49.090Z,85.93848
2023-07-05T03:59:50.591Z,85.14355
2023-07-05T04:04:49.234Z,82.3252
2023-07-05T04:09:49.068Z,81.37012
2023-07-05T04:14:49.342Z,81.40332
2023-07-05T04:19:49.159Z,82.55469
2023-07-05T04:24:49.130Z,82.30566
2023-07-05T04:29:49.098Z,80.34375
2023-07-05T04:34:49.134Z,80.62988
2023-07-05T04:39:49.143Z,81.28711
2023-07-05T04:44:49.112Z,79.72852
2023-07-05T04:49:49.404Z,79.65234
2023-07-05T04:54:49.265Z,79.94238
2023-07-05T04:59:52.672Z,78.58887
2023-07-05T05:04:49.270Z,78.04688
2023-07-05T05:09:49.158Z,75.46777
2023-07-05T05:14:49.249Z,75.47461
2023-07-05T05:19:49.205Z,75.70605
2023-07-05T05:24:49.197Z,75.46289
2023-07-05T05:29:49.266Z,74.99316
2023-07-05T05:34:49.316Z,74.26563
2023-07-05T05:39:49.245Z,69.99902
2023-07-05T05:44:49.302Z,67.55566
2023-07-05T05:49:49.220Z,64.53027
2023-07-05T05:54:49.294Z,64.23535
2023-07-05T05:59:49.342Z,64.15625
2023-07-05T06:04:49.200Z,65.90918
2023-07-05T06:09:52.340Z,67.42285
2023-07-05T06:14:49.258Z,69.49805
2023-07-05T06:19:49.298Z,71.27637
2023-07-05T06:24:49.151Z,71.58496
2023-07-05T06:29:49.189Z,71.18164
2023-07-05T06:34:49.315Z,70.29102
2023-07-05T06:39:49.450Z,70.31836
2023-07-05T06:44:49.263Z,70.28711
2023-07-05T06:49:49.265Z,70.32129
2023-07-05T06:54:49.374Z,66.60938
2023-07-05T06:59:49.215Z,68.09473
2023-07-05T07:04:49.388Z,70.0791
2023-07-05T07:09:50.111Z,70.7168
2023-07-05T07:14:49.260Z,73.5332
2023-07-05T07:19:49.224Z,75.1748
2023-07-05T07:24:49.795Z,76.60742
2023-07-05T07:29:49.899Z,77.17188
2023-07-05T07:34:49.269Z,76.97949
2023-07-05T07:39:49.302Z,72.47754
2023-07-05T07:44:49.307Z,70.58203
2023-07-05T07:49:49.254Z,67.18848
2023-07-05T07:54:49.318Z,65.89746
2023-07-05T07:59:49.300Z,69.68652
2023-07-05T08:04:52.270Z,72.17773
2023-07-05T08:09:51.225Z,75.25391
2023-07-05T08:14:49.335Z,75.68555
2023-07-05T08:19:50.639Z,76.32422
2023-07-05T08:24:49.333Z,74.36914
2023-07-05T08:29:49.579Z,76.64551
2023-07-05T08:34:49.314Z,79.52637
2023-07-05T08:39:49.295Z,78.64551
2023-07-05T08:45:00.704Z,78.51074
2023-07-05T08:49:51.751Z,76.72754
2023-07-05T08:54:49.545Z,76.94824
2023-07-05T08:59:52.826Z,80.61914
2023-07-05T09:04:50.782Z,83.72363
2023-07-05T09:09:55.198Z,86.33594
2023-07-05T09:14:56.131Z,87.66602
2023-07-05T09:19:55.057Z,88.31055
2023-07-05T09:24:49.720Z,83.85547
2023-07-05T09:29:52.646Z,83.00879
2023-07-05T09:34:51.310Z,82.51074
2023-07-05T09:39:52.835Z,80.82813
2023-07-05T09:44:49.407Z,78.60547
2023-07-05T09:49:49.340Z,78.00293
2023-07-05T09:54:50.011Z,78.50391
2023-07-05T09:59:49.419Z,78.58789
2023-07-05T10:04:51.848Z,76.96973
2023-07-05T10:09:58.469Z,75.79492
2023-07-05T10:14:58.409Z,75.82422
2023-07-05T10:19:54.109Z,73.40723
2023-07-05T10:24:50.939Z,70.31738
2023-07-05T10:29:52.722Z,69.70703
2023-07-05T10:34:52.612Z,69.71191
2023-07-05T10:39:49.426Z,71.56836
2023-07-05T10:44:49.643Z,73.95605
2023-07-05T10:49:49.887Z,77.13281
2023-07-05T10:54:51.286Z,74.59375
2023-07-05T10:59:50.716Z,75.8584
2023-07-05T11:04:49.868Z,75.15723
2023-07-05T11:09:49.483Z,72.35645
2023-07-05T11:14:49.943Z,71.66309
2023-07-05T11:19:49.517Z,71.34375
2023-07-05T11:24:49.658Z,74.22461
2023-07-05T11:29:53.267Z,75.38281
2023-07-05T11:34:57.226Z,71.96289
2023-07-05T11:39:50.825Z,72.59277
2023-07-05T11:44:50.652Z,76.20801
2023-07-05T11:49:49.563Z,77.59863
2023-07-05T11:55:03.032Z,78.47266
2023-07-05T11:59:53.215Z,77.13965
2023-07-05T12:04:50.451Z,76.11426
2023-07-05T12:09:50.058Z,76.4248
2023-07-05T12:14:50.094Z,77.90234
2023-07-05T12:19:49.794Z,77.93359
2023-07-05T12:24:51.365Z,79.53125
2023-07-05T12:29:53.729Z,77.96973
2023-07-05T12:34:49.544Z,79.7373
2023-07-05T12:39:49.540Z,79.35449
2023-07-05T12:44:49.673Z,79.25
2023-07-05T12:49:49.692Z,77.2832
2023-07-05T12:54:49.550Z,78.24023
2023-07-05T13:00:00.344Z,80.40723
2023-07-05T13:04:50.920Z,80.82324
2023-07-05T13:09:49.799Z,82.90332
2023-07-05T13:14:59.516Z,82.85352
2023-07-05T13:19:51.362Z,83.32422
2023-07-05T13:24:54.013Z,82.22949
2023-07-05T13:29:49.986Z,83.08203
2023-07-05T13:34:49.667Z,81.45801
2023-07-05T13:39:49.704Z,79.6416
2023-07-05T13:44:49.816Z,79.63672
2023-07-05T13:49:50.983Z,79.42578
2023-07-05T13:54:50.535Z,79.21094
2023-07-05T13:59:49.962Z,80.40625
2023-07-05T14:04:49.632Z,81.86816
2023-07-05T14:09:49.632Z,84.15527
2023-07-05T14:14:49.697Z,84.64453
2023-07-05T14:19:50.076Z,86.31836
2023-07-05T14:24:49.982Z,87.60059
2023-07-05T14:29:50.389Z,86.98242
2023-07-05T14:34:49.715Z,87.67676
2023-07-05T14:39:50.733Z,87.67578
2023-07-05T14:44:49.610Z,87.57031
2023-07-05T14:49:49.655Z,85.46484
2023-07-05T14:54:49.716Z,83.95898
2023-07-05T14:59:50.233Z,82.64551
2023-07-05T15:04:49.773Z,82.07813
2023-07-05T15:09:49.847Z,77.72168
2023-07-05T15:14:49.712Z,73.11035
2023-07-05T15:19:49.671Z,71.01172
2023-07-05T15:24:50.260Z,69.03223
2023-07-05T15:29:49.720Z,71.11035
2023-07-05T15:34:49.734Z,67.99707
2023-07-05T15:39:49.750Z,69.92578
2023-07-05T15:44:50.250Z,67.64258
2023-07-05T15:49:49.783Z,69.8125
2023-07-05T15:54:49.722Z,69.13574
2023-07-05T15:59:58.821Z,72.79199
2023-07-05T16:04:50.008Z,77.33105
2023-07-05T16:09:49.739Z,81.55176
2023-07-05T16:14:49.874Z,82.80957
2023-07-05T16:19:49.780Z,84.12598
2023-07-05T16:24:50.225Z,83.42969
2023-07-05T16:29:49.834Z,83.22949
2023-07-05T16:34:50.133Z,79.8252
2023-07-05T16:39:49.793Z,78.86523
2023-07-05T16:44:49.693Z,78.36621
2023-07-05T16:49:50.119Z,73.47168
2023-07-05T16:54:49.797Z,69.54004
2023-07-05T16:59:49.853Z,68.54102
2023-07-05T17:04:49.742Z,69.12109
2023-07-05T17:09:49.747Z,70.88965
2023-07-05T17:14:50.197Z,66.7373
2023-07-05T17:19:49.794Z,68.33594
2023-07-05T17:24:49.838Z,71.08203
2023-07-05T17:29:49.903Z,75.15332
2023-07-05T17:34:49.755Z,73.89551
2023-07-05T17:39:50.218Z,75.11719
2023-07-05T17:44:49.805Z,75.67285
2023-07-05T17:49:49.838Z,71.96582
2023-07-05T17:54:50.542Z,68.70313
2023-07-05T17:59:50.215Z,68.66797
2023-07-05T18:04:49.897Z,70.60059
2023-07-05T18:09:49.891Z,71.61621
2023-07-05T18:14:49.862Z,71.4209
2023-07-05T18:19:49.890Z,69.90723
2023-07-05T18:24:49.938Z,70.5625
2023-07-05T18:29:49.968Z,71.4502
2023-07-05T18:34:50.148Z,70.94043
2023-07-05T18:39:49.962Z,71.33594
2023-07-05T18:44:49.849Z,72.04688
2023-07-05T18:49:49.879Z,71.04395
2023-07-05T18:54:50.047Z,71.99023
2023-07-05T18:59:50.012Z,73.20801
2023-07-05T19:04:49.891Z,74.70703
2023-07-05T19:09:50.194Z,76.07324
2023-07-05T19:14:50.018Z,75.94141
2023-07-05T19:19:50.175Z,77.4043
2023-07-05T19:24:50.570Z,78.0918
2023-07-05T19:29:49.967Z,79.38965
2023-07-05T19:34:49.990Z,80.53125
2023-07-05T19:39:50.511Z,81.97461
2023-07-05T19:44:49.937Z,82.49414
2023-07-05T19:49:50.192Z,82.26367
2023-07-05T19:54:50.070Z,82.7373
2023-07-05T19:59:49.985Z,82.87988
2023-07-05T20:04:50.009Z,84.30469
2023-07-05T20:09:50.111Z,85.26855
2023-07-05T20:14:50.287Z,85.83594
2023-07-05T20:19:49.996Z,88.0791
2023-07-05T20:24:50.041Z,88.67188
2023-07-05T20:29:49.991Z,89.39941
2023-07-05T20:34:50.158Z,89.93164
2023-07-05T20:39:52.967Z,90.51563
2023-07-05T20:44:50.712Z,91.18457
2023-07-05T20:49:51.540Z,91.56641
2023-07-05T20:54:50.061Z,91.7793
2023-07-05T20:59:50.068Z,92.19824
2023-07-05T21:04:50.125Z,92.55176
2023-07-05T21:09:50.639Z,92.53613
2023-07-05T21:14:50.122Z,91.89355
2023-07-05T21:19:50.043Z,91.12207
2023-07-05T21:24:50.044Z,89.73828
2023-07-05T21:29:50.016Z,87.96289
2023-07-05T21:34:50.144Z,88.15039
2023-07-05T21:39:50.138Z,88.76074
2023-07-05T21:44:50.322Z,89.07617
2023-07-05T21:49:50.025Z,89.52637
2023-07-05T21:54:50.083Z,90.1875
2023-07-05T21:59:50.451Z,90.5332
2023-07-05T22:04:50.461Z,90.99023
2023-07-05T22:09:50.079Z,91.37891
2023-07-05T22:19:51.361Z,92.30469
2023-07-05T22:24:50.040Z,92.26855
2023-07-05T22:29:50.076Z,93.41699
2023-07-05T22:34:50.307Z,94.42969
2023-07-05T22:39:50.106Z,94.49316
2023-07-05T22:44:51.487Z,95.0293
2023-07-05T22:49:50.142Z,95.49512
2023-07-05T22:54:50.099Z,95.80762
2023-07-05T22:59:50.055Z,96.10156
2023-07-05T23:04:50.056Z,96.31152
2023-07-05T23:09:50.138Z,96.7002
2023-07-05T23:14:50.160Z,96.99609
2023-07-05T23:19:50.100Z,97.05273
2023-07-05T23:24:51.546Z,97.07422
2023-07-05T23:29:51.247Z,97.16016
2023-07-05T23:34:51.205Z,97.36133
2023-07-05T23:39:50.117Z,97.72461
2023-07-05T23:44:50.328Z,98
2023-07-05T23:49:52.673Z,98.24902
2023-07-05T23:54:50.182Z,98.13379
2023-07-05T23:59:50.152Z,98.23828
